Time;durP1;ratioP1;P1;durP2;ratioP2;P2;SDS_P1;SDS_P2;PMS_P1;PMS_P2;Temp;Humidity;BMP_temperature;BMP_pressure;BME280_temperature;BME280_humidity;BME280_pressure;Samples;Min_cycle;Max_cycle;Signal;HPM_P1;HPM_P2
2023/09/09 00:02:12;;;;;;;16.92;10.60;;;19.90;99.90;;;;;;4980382;28;20057;-71
2023/09/09 00:04:40;;;;;;;16.13;11.50;;;19.90;99.90;;;;;;4937041;28;160917;-72
2023/09/09 00:07:06;;;;;;;14.70;10.60;;;19.90;99.90;;;;;;4980171;28;20059;-75
2023/09/09 00:09:32;;;;;;;16.25;11.07;;;19.80;99.90;;;;;;4924091;28;217416;-73
2023/09/09 00:11:59;;;;;;;15.30;10.73;;;19.80;99.90;;;;;;4982264;28;20042;-70
2023/09/09 00:14:25;;;;;;;15.20;11.02;;;19.80;99.90;;;;;;4942345;28;20046;-72
2023/09/09 00:16:52;;;;;;;16.65;10.88;;;19.80;99.90;;;;;;4983122;28;20061;-71
2023/09/09 00:19:21;;;;;;;13.90;9.82;;;19.80;99.90;;;;;;4960512;28;51717;-72
2023/09/09 00:21:47;;;;;;;16.15;11.05;;;19.70;99.90;;;;;;4981444;28;20451;-72
2023/09/09 00:24:14;;;;;;;15.38;10.05;;;19.70;99.90;;;;;;4921042;28;147059;-72
2023/09/09 00:26:40;;;;;;;14.80;9.98;;;19.70;99.90;;;;;;4979819;28;20604;-73
2023/09/09 00:29:06;;;;;;;16.75;11.20;;;19.70;99.90;;;;;;4910005;28;140566;-72
2023/09/09 00:31:32;;;;;;;16.88;11.40;;;19.70;99.90;;;;;;4993233;28;20057;-72
2023/09/09 00:33:58;;;;;;;15.20;11.02;;;19.70;99.90;;;;;;4951474;28;53447;-71
2023/09/09 00:36:24;;;;;;;14.93;11.18;;;19.60;99.90;;;;;;4992946;28;20048;-73
2023/09/09 00:38:50;;;;;;;15.65;10.90;;;19.60;99.90;;;;;;4966387;28;59284;-72
2023/09/09 00:41:18;;;;;;;16.42;10.45;;;19.60;99.90;;;;;;4983479;28;20058;-73
2023/09/09 00:43:45;;;;;;;13.68;10.60;;;19.50;99.90;;;;;;4969409;28;215106;-72
2023/09/09 00:46:13;;;;;;;14.63;11.05;;;19.50;99.90;;;;;;5001748;28;20053;-73
2023/09/09 00:48:39;;;;;;;14.38;10.50;;;19.50;99.90;;;;;;4937437;28;97840;-72
2023/09/09 00:51:05;;;;;;;13.95;10.43;;;19.40;99.90;;;;;;4990786;28;20076;-71
2023/09/09 00:53:34;;;;;;;16.20;10.80;;;19.50;99.90;;;;;;4944650;28;210345;-74
2023/09/09 00:56:01;;;;;;;17.08;11.68;;;19.40;99.90;;;;;;4993269;28;20065;-71
2023/09/09 00:58:30;;;;;;;14.93;11.30;;;19.40;99.90;;;;;;4957858;28;26015;-72
2023/09/09 01:00:57;;;;;;;16.40;11.57;;;19.30;99.90;;;;;;5005901;28;20045;-72
2023/09/09 01:03:23;;;;;;;15.55;10.98;;;19.30;99.90;;;;;;4976455;28;23671;-72
2023/09/09 01:05:50;;;;;;;17.65;11.05;;;19.30;99.90;;;;;;5016583;28;20066;-72
2023/09/09 01:08:29;;;;;;;13.85;10.63;;;19.20;99.90;;;;;;4956221;28;29352;-71
2023/09/09 01:10:57;;;;;;;15.70;11.07;;;19.20;99.90;;;;;;5000017;28;20034;-72
2023/09/09 01:13:23;;;;;;;14.98;12.10;;;19.20;99.90;;;;;;4962918;28;78974;-73
2023/09/09 01:15:50;;;;;;;16.20;10.55;;;19.20;99.90;;;;;;5003316;28;20061;-71
2023/09/09 01:18:17;;;;;;;16.92;11.90;;;19.20;99.90;;;;;;4965906;28;116027;-72
2023/09/09 01:20:50;;;;;;;14.65;11.32;;;19.10;99.90;;;;;;5010432;28;20052;-71
2023/09/09 01:23:16;;;;;;;15.20;12.02;;;19.10;99.90;;;;;;4967853;28;60500;-71
2023/09/09 01:25:42;;;;;;;16.48;11.27;;;19.10;99.90;;;;;;5010421;28;20061;-74
2023/09/09 01:28:09;;;;;;;16.55;12.35;;;19.10;99.90;;;;;;4964505;28;109967;-71
2023/09/09 01:30:35;;;;;;;18.40;11.35;;;19.00;99.90;;;;;;4977295;28;20065;-72
2023/09/09 01:33:02;;;;;;;16.38;12.98;;;19.00;99.90;;;;;;4943461;28;36724;-76
2023/09/09 01:35:29;;;;;;;16.33;12.07;;;19.00;99.90;;;;;;4965001;28;20069;-73
2023/09/09 01:37:55;;;;;;;20.50;13.43;;;19.00;99.90;;;;;;4937550;28;153047;-73
2023/09/09 01:40:21;;;;;;;19.10;14.27;;;19.00;99.90;;;;;;4981172;28;20050;-75
2023/09/09 01:42:49;;;;;;;15.90;12.32;;;19.00;99.90;;;;;;4946951;28;87829;-71
2023/09/09 01:45:16;;;;;;;16.88;14.57;;;18.90;99.90;;;;;;4985288;28;20077;-71
2023/09/09 01:47:42;;;;;;;18.55;15.32;;;18.90;99.90;;;;;;4954363;28;20058;-72
2023/09/09 01:50:09;;;;;;;18.15;14.57;;;18.90;99.90;;;;;;4978661;28;276625;-73
2023/09/09 01:52:35;;;;;;;19.20;15.18;;;18.90;99.90;;;;;;4954384;28;20530;-72
2023/09/09 01:55:01;;;;;;;16.77;13.60;;;18.90;99.90;;;;;;4907923;28;169447;-72
2023/09/09 01:57:29;;;;;;;18.63;16.45;;;18.90;99.90;;;;;;4969636;28;20069;-71
2023/09/09 01:59:56;;;;;;;22.58;19.10;;;18.80;99.90;;;;;;4947348;28;20053;-72
2023/09/09 02:02:22;;;;;;;18.70;15.75;;;18.90;99.90;;;;;;4986241;28;20066;-72
2023/09/09 02:04:49;;;;;;;26.15;19.52;;;18.80;99.90;;;;;;4978218;28;122330;-72
2023/09/09 02:07:15;;;;;;;19.88;15.00;;;18.80;99.90;;;;;;5003241;28;20505;-74
2023/09/09 02:09:41;;;;;;;22.23;16.00;;;18.80;99.90;;;;;;4959409;28;116124;-71
2023/09/09 02:12:07;;;;;;;19.17;16.00;;;18.80;99.90;;;;;;4986739;28;20043;-73
2023/09/09 02:14:33;;;;;;;20.92;18.05;;;18.70;99.90;;;;;;4970806;28;65628;-71
2023/09/09 02:17:00;;;;;;;20.77;16.08;;;18.70;99.90;;;;;;5002570;28;20058;-72
2023/09/09 02:19:26;;;;;;;20.33;15.73;;;18.70;99.90;;;;;;4962725;28;106606;-73
2023/09/09 02:21:52;;;;;;;18.98;15.70;;;18.70;99.90;;;;;;4999559;28;20122;-73
2023/09/09 02:24:18;;;;;;;19.90;16.90;;;18.70;99.90;;;;;;4965843;28;178069;-72
2023/09/09 02:26:44;;;;;;;19.73;16.77;;;18.60;99.90;;;;;;5000002;28;20050;-74
2023/09/09 02:29:10;;;;;;;21.80;17.92;;;18.60;99.90;;;;;;4950887;28;151030;-72
2023/09/09 02:31:36;;;;;;;21.58;16.90;;;18.60;99.90;;;;;;4986669;28;20523;-71
2023/09/09 02:34:02;;;;;;;18.45;15.93;;;18.60;99.90;;;;;;4955464;28;90472;-72
2023/09/09 02:36:28;;;;;;;18.75;16.08;;;18.60;99.90;;;;;;4989257;28;20554;-75
2023/09/09 02:38:54;;;;;;;23.40;16.98;;;18.60;99.90;;;;;;4955437;28;240400;-73
2023/09/09 02:41:20;;;;;;;23.85;17.40;;;18.60;99.90;;;;;;4988285;28;20057;-73
2023/09/09 02:43:50;;;;;;;22.65;19.80;;;18.50;99.90;;;;;;4959887;28;48455;-73
2023/09/09 02:46:16;;;;;;;21.65;18.33;;;18.50;99.90;;;;;;4990023;28;20066;-72
2023/09/09 02:48:42;;;;;;;22.83;17.48;;;18.50;99.90;;;;;;4948991;28;237663;-75
2023/09/09 02:51:08;;;;;;;22.95;18.30;;;18.40;99.90;;;;;;5005732;28;20640;-73
2023/09/09 02:53:34;;;;;;;22.55;17.80;;;18.40;99.90;;;;;;4955500;28;119623;-73
2023/09/09 02:56:00;;;;;;;23.55;20.95;;;18.40;99.90;;;;;;5011003;28;20058;-72
2023/09/09 02:58:26;;;;;;;24.35;20.50;;;18.30;99.90;;;;;;4964434;28;124832;-72
2023/09/09 03:00:53;;;;;;;25.55;17.60;;;18.30;99.90;;;;;;4972131;28;20069;-71
2023/09/09 03:03:20;;;;;;;22.15;18.05;;;18.30;99.90;;;;;;4946458;28;236615;-72
2023/09/09 03:05:46;;;;;;;26.67;21.30;;;18.30;99.90;;;;;;5011030;28;20053;-72
2023/09/09 03:08:12;;;;;;;25.23;19.60;;;18.40;99.90;;;;;;4957635;28;80123;-71
2023/09/09 03:10:38;;;;;;;25.23;19.67;;;18.30;99.90;;;;;;4979900;28;20042;-72
2023/09/09 03:13:04;;;;;;;24.77;19.20;;;18.30;99.90;;;;;;4942896;28;179884;-71
2023/09/09 03:15:30;;;;;;;21.38;18.10;;;18.30;99.90;;;;;;5007485;28;20041;-72
2023/09/09 03:17:56;;;;;;;22.70;18.87;;;18.20;99.90;;;;;;4954983;28;122947;-71
2023/09/09 03:20:23;;;;;;;24.63;19.35;;;18.20;99.90;;;;;;4986953;28;20053;-72
2023/09/09 03:22:49;;;;;;;36.35;23.25;;;18.20;99.90;;;;;;4945972;28;162481;-74
2023/09/09 03:25:15;;;;;;;27.58;22.10;;;18.20;99.90;;;;;;4984968;28;20065;-72
2023/09/09 03:27:41;;;;;;;25.95;19.90;;;18.20;99.90;;;;;;4954037;28;20049;-74
2023/09/09 03:30:09;;;;;;;21.20;17.63;;;18.20;99.90;;;;;;4942021;28;105569;-72
2023/09/09 03:32:35;;;;;;;23.52;19.25;;;18.10;99.90;;;;;;4957544;28;20054;-75
2023/09/09 03:35:01;;;;;;;26.20;21.67;;;18.10;99.90;;;;;;5005148;28;132355;-74
2023/09/09 03:37:27;;;;;;;20.15;16.15;;;18.10;99.90;;;;;;4985722;28;20053;-71
2023/09/09 03:39:53;;;;;;;21.85;16.58;;;18.10;99.90;;;;;;4976129;28;107923;-73
2023/09/09 03:42:19;;;;;;;25.65;20.95;;;18.10;99.90;;;;;;4987049;28;20062;-73
2023/09/09 03:44:45;;;;;;;21.55;19.25;;;18.00;99.90;;;;;;4940100;28;120171;-75
2023/09/09 03:47:11;;;;;;;25.50;21.88;;;18.00;99.90;;;;;;4986696;28;20507;-73
2023/09/09 03:49:37;;;;;;;24.13;20.75;;;18.00;99.90;;;;;;4962388;28;88791;-75
2023/09/09 03:52:04;;;;;;;24.20;21.60;;;18.00;99.90;;;;;;4967822;28;20045;-73
2023/09/09 03:54:30;;;;;;;20.42;18.23;;;18.00;99.90;;;;;;4902993;28;156817;-75
2023/09/09 03:56:56;;;;;;;25.88;21.80;;;18.00;99.90;;;;;;5001640;28;20054;-74
2023/09/09 03:59:22;;;;;;;24.35;20.77;;;18.00;99.90;;;;;;4951693;28;46396;-74
2023/09/09 04:01:48;;;;;;;23.90;21.30;;;17.90;99.90;;;;;;5006912;28;20054;-72
2023/09/09 04:04:15;;;;;;;24.00;17.83;;;17.90;99.90;;;;;;4978528;28;20053;-70
2023/09/09 04:06:41;;;;;;;21.15;16.88;;;17.90;99.90;;;;;;5008955;28;20050;-73
2023/09/09 04:09:07;;;;;;;24.95;20.80;;;17.90;99.90;;;;;;4957366;28;173859;-73
2023/09/09 04:11:33;;;;;;;22.27;19.75;;;17.90;99.90;;;;;;4989132;28;20066;-74
2023/09/09 04:13:59;;;;;;;23.80;19.20;;;17.80;99.90;;;;;;4969255;28;107018;-71
2023/09/09 04:16:25;;;;;;;28.10;23.77;;;17.80;99.90;;;;;;5000835;28;20079;-73
2023/09/09 04:18:51;;;;;;;22.02;19.25;;;17.80;99.90;;;;;;4930093;28;237011;-73
2023/09/09 04:21:17;;;;;;;24.02;19.92;;;17.80;99.90;;;;;;4983933;28;20630;-74
2023/09/09 04:23:45;;;;;;;24.65;20.73;;;17.80;99.90;;;;;;4941233;28;20065;-72
2023/09/09 04:26:11;;;;;;;26.42;21.50;;;17.70;99.90;;;;;;4981094;28;20142;-72
2023/09/09 04:28:38;;;;;;;24.02;21.42;;;17.70;99.90;;;;;;4957297;28;20042;-73
2023/09/09 04:31:04;;;;;;;23.55;19.63;;;17.70;99.90;;;;;;4997042;28;20054;-73
2023/09/09 04:33:30;;;;;;;25.88;20.15;;;17.70;99.90;;;;;;4961239;28;186628;-75
2023/09/09 04:35:56;;;;;;;27.38;21.50;;;17.70;99.90;;;;;;4991315;28;20085;-74
2023/09/09 04:38:23;;;;;;;27.27;23.55;;;17.70;99.90;;;;;;4961034;28;96048;-72
2023/09/09 04:40:49;;;;;;;25.55;22.38;;;17.60;99.90;;;;;;5006126;28;20058;-72
2023/09/09 04:43:15;;;;;;;26.92;23.33;;;17.60;99.90;;;;;;4962970;28;20138;-72
2023/09/09 04:45:41;;;;;;;27.95;24.70;;;17.70;99.90;;;;;;5002408;28;20076;-71
2023/09/09 04:48:10;;;;;;;24.95;19.52;;;17.60;99.90;;;;;;4951664;28;234108;-74
2023/09/09 04:50:36;;;;;;;27.27;22.85;;;17.60;99.90;;;;;;4986099;28;20844;-73
2023/09/09 04:53:04;;;;;;;30.07;23.97;;;17.60;99.90;;;;;;4932096;28;139480;-72
2023/09/09 04:55:30;;;;;;;28.10;23.20;;;17.60;99.90;;;;;;4996562;28;20058;-73
2023/09/09 04:57:56;;;;;;;24.33;21.73;;;17.60;99.90;;;;;;4946540;28;184064;-72
2023/09/09 05:00:22;;;;;;;24.92;22.20;;;17.50;99.90;;;;;;5013888;28;20419;-73
2023/09/09 05:02:49;;;;;;;25.00;22.27;;;17.50;99.90;;;;;;4958462;28;72390;-72
2023/09/09 05:05:15;;;;;;;27.90;23.48;;;17.50;99.90;;;;;;4988716;28;20069;-75
2023/09/09 05:07:41;;;;;;;26.33;23.15;;;17.50;99.90;;;;;;4971208;28;20704;-76
2023/09/09 05:10:07;;;;;;;27.92;23.88;;;17.50;99.90;;;;;;4990308;28;200336;-72
2023/09/09 05:12:35;;;;;;;31.55;25.58;;;17.50;99.90;;;;;;4974173;28;20057;-72
2023/09/09 05:15:03;;;;;;;30.75;26.42;;;17.50;99.90;;;;;;4977819;28;99352;-72
2023/09/09 05:17:29;;;;;;;27.90;24.52;;;17.60;99.90;;;;;;4970226;28;20054;-72
2023/09/09 05:19:55;;;;;;;30.50;26.17;;;17.60;99.90;;;;;;4986832;28;70521;-73
2023/09/09 05:22:21;;;;;;;33.22;28.10;;;17.60;99.90;;;;;;4985792;28;20069;-73
2023/09/09 05:24:47;;;;;;;29.70;24.33;;;17.60;99.90;;;;;;4925019;28;134935;-72
2023/09/09 05:27:13;;;;;;;31.85;27.27;;;17.70;99.90;;;;;;4984675;28;20058;-72
2023/09/09 05:29:40;;;;;;;30.67;26.60;;;17.70;99.90;;;;;;4964749;28;120372;-72
2023/09/09 05:32:06;;;;;;;29.73;25.42;;;17.70;99.90;;;;;;5005359;28;20046;-71
2023/09/09 05:34:32;;;;;;;29.55;25.85;;;17.70;99.90;;;;;;4959452;28;152292;-74
2023/09/09 05:36:58;;;;;;;32.47;27.23;;;17.80;99.90;;;;;;5010115;28;20060;-73
2023/09/09 05:39:24;;;;;;;25.23;21.92;;;17.80;99.90;;;;;;4964758;28;30246;-71
2023/09/09 05:41:50;;;;;;;30.08;26.55;;;17.90;99.90;;;;;;5007400;28;20050;-73
2023/09/09 05:44:16;;;;;;;32.25;26.98;;;18.10;99.90;;;;;;4958825;28;118852;-71
2023/09/09 05:46:42;;;;;;;30.17;24.25;;;18.30;99.90;;;;;;5008374;28;20022;-73
2023/09/09 05:49:08;;;;;;;29.67;25.92;;;18.50;99.90;;;;;;4955520;28;45053;-72
2023/09/09 05:51:34;;;;;;;27.92;24.85;;;18.70;99.90;;;;;;5007263;28;20049;-74
2023/09/09 05:54:01;;;;;;;28.52;25.40;;;18.90;99.90;;;;;;4946836;28;211430;-71
2023/09/09 05:56:27;;;;;;;32.97;28.05;;;19.10;99.90;;;;;;4991110;28;20077;-74
2023/09/09 05:58:53;;;;;;;35.42;27.20;;;19.60;99.90;;;;;;4931237;28;20495;-71
2023/09/09 06:01:19;;;;;;;28.45;23.63;;;19.90;99.90;;;;;;4984490;28;20065;-72
2023/09/09 06:03:45;;;;;;;28.20;24.20;;;20.20;99.90;;;;;;4945988;28;249447;-72
2023/09/09 06:06:12;;;;;;;28.88;23.50;;;20.50;99.90;;;;;;4986087;28;20058;-73
2023/09/09 06:08:38;;;;;;;27.40;23.85;;;20.80;99.90;;;;;;4951352;28;122648;-73
2023/09/09 06:11:04;;;;;;;28.42;23.42;;;21.00;99.90;;;;;;4989097;28;20046;-72
2023/09/09 06:13:30;;;;;;;29.17;23.98;;;21.20;99.90;;;;;;4945802;28;229956;-76
2023/09/09 06:15:56;;;;;;;26.70;22.77;;;21.30;99.90;;;;;;4992904;28;20054;-73
2023/09/09 06:18:22;;;;;;;32.05;23.27;;;21.50;99.90;;;;;;4947819;28;144842;-71
2023/09/09 06:20:48;;;;;;;27.92;23.13;;;21.70;99.90;;;;;;4990682;28;20129;-72
2023/09/09 06:23:15;;;;;;;29.15;23.27;;;21.80;99.90;;;;;;4932457;28;102420;-73
2023/09/09 06:25:41;;;;;;;25.33;22.27;;;22.10;99.90;;;;;;4956882;28;20047;-73
2023/09/09 06:28:07;;;;;;;26.88;22.23;;;22.30;99.90;;;;;;4946449;28;90363;-73
2023/09/09 06:30:34;;;;;;;24.83;21.85;;;22.50;99.90;;;;;;4983171;28;20057;-72
2023/09/09 06:33:02;;;;;;;28.75;22.00;;;22.70;99.90;;;;;;4944819;28;84481;-71
2023/09/09 06:35:28;;;;;;;31.52;21.75;;;22.90;99.90;;;;;;4984516;28;20131;-74
2023/09/09 06:37:55;;;;;;;25.73;21.38;;;23.20;99.90;;;;;;4937270;28;196171;-73
2023/09/09 06:40:22;;;;;;;23.15;20.75;;;23.40;99.90;;;;;;4969632;28;20054;-71
2023/09/09 06:42:48;;;;;;;24.50;21.75;;;23.50;99.90;;;;;;4949954;28;90122;-72
2023/09/09 06:45:18;;;;;;;24.35;21.35;;;23.60;99.90;;;;;;5001098;28;20460;-72
2023/09/09 06:47:45;;;;;;;24.27;20.88;;;23.80;99.90;;;;;;4977995;28;20047;-71
2023/09/09 06:50:11;;;;;;;23.70;20.85;;;24.00;99.90;;;;;;5002291;28;179681;-75
2023/09/09 06:52:38;;;;;;;27.15;21.13;;;24.30;99.90;;;;;;4956383;28;20061;-73
2023/09/09 06:55:06;;;;;;;26.23;20.48;;;24.40;99.90;;;;;;4958712;28;166739;-74
2023/09/09 06:57:32;;;;;;;25.85;20.33;;;24.30;99.90;;;;;;4955066;28;20054;-71
2023/09/09 06:59:58;;;;;;;28.80;20.90;;;24.40;99.90;;;;;;5005684;28;168881;-72
2023/09/09 07:02:24;;;;;;;24.92;21.30;;;24.50;99.90;;;;;;4999326;28;20045;-75
2023/09/09 07:04:50;;;;;;;23.92;21.23;;;24.40;99.90;;;;;;4956086;28;104535;-72
2023/09/09 07:07:17;;;;;;;24.30;21.70;;;24.40;99.90;;;;;;4984268;28;20058;-72
2023/09/09 07:09:43;;;;;;;27.40;22.10;;;24.40;99.90;;;;;;4923261;28;234966;-74
2023/09/09 07:12:10;;;;;;;24.98;20.48;;;24.30;99.90;;;;;;4984736;28;20050;-73
2023/09/09 07:14:37;;;;;;;24.20;21.02;;;24.30;99.90;;;;;;4922812;28;175169;-72
2023/09/09 07:17:03;;;;;;;23.95;21.35;;;24.50;99.90;;;;;;4991589;28;20439;-72
2023/09/09 07:19:29;;;;;;;24.08;20.73;;;24.70;99.90;;;;;;4941920;28;39680;-73
2023/09/09 07:21:55;;;;;;;28.05;22.00;;;25.00;99.90;;;;;;4983526;28;20416;-72
2023/09/09 07:24:21;;;;;;;27.75;21.60;;;25.20;99.90;;;;;;4939480;28;181900;-74
2023/09/09 07:26:48;;;;;;;23.85;21.45;;;25.30;99.90;;;;;;4981056;28;20389;-71
2023/09/09 07:29:14;;;;;;;24.08;21.08;;;25.40;99.90;;;;;;4938566;28;143971;-72
2023/09/09 07:31:40;;;;;;;23.75;21.15;;;25.50;99.90;;;;;;4987771;28;20059;-71
2023/09/09 07:34:06;;;;;;;23.05;20.52;;;25.50;99.30;;;;;;4926097;28;21402;-73
2023/09/09 07:36:32;;;;;;;25.88;22.45;;;25.40;99.90;;;;;;4983350;28;20059;-72
2023/09/09 07:38:58;;;;;;;24.33;21.73;;;25.60;99.90;;;;;;4963196;28;79215;-71
2023/09/09 07:41:24;;;;;;;25.23;22.40;;;25.90;99.90;;;;;;5010736;28;20064;-72
2023/09/09 07:43:50;;;;;;;25.45;22.38;;;26.20;99.60;;;;;;4960666;28;218889;-72
2023/09/09 07:46:16;;;;;;;24.77;22.13;;;26.30;99.00;;;;;;5010722;28;20069;-71
2023/09/09 07:48:43;;;;;;;26.33;22.63;;;26.30;99.00;;;;;;4949617;28;199796;-72
2023/09/09 07:51:09;;;;;;;26.88;21.90;;;26.50;99.00;;;;;;4994294;28;20407;-75
2023/09/09 07:53:35;;;;;;;25.02;22.25;;;26.70;98.80;;;;;;4932447;28;123377;-73
2023/09/09 07:56:01;;;;;;;25.08;22.38;;;26.80;98.70;;;;;;4973440;28;20058;-73
2023/09/09 07:58:27;;;;;;;26.75;22.08;;;27.10;98.90;;;;;;4948728;28;20054;-71
2023/09/09 08:00:58;;;;;;;24.80;21.58;;;27.40;98.30;;;;;;4998186;28;20054;-74
2023/09/09 08:03:25;;;;;;;27.17;22.08;;;27.80;98.10;;;;;;4948200;28;224400;-74
2023/09/09 08:05:56;;;;;;;24.45;22.02;;;27.80;98.20;;;;;;4993641;28;20061;-74
2023/09/09 08:08:22;;;;;;;25.77;22.83;;;28.10;97.90;;;;;;4943683;28;82946;-74
2023/09/09 08:10:49;;;;;;;28.42;23.50;;;28.20;97.70;;;;;;4990289;28;20061;-73
2023/09/09 08:13:15;;;;;;;29.10;20.73;;;28.50;97.40;;;;;;4956780;28;77915;-74
2023/09/09 08:15:42;;;;;;;27.77;22.23;;;28.90;97.10;;;;;;4984021;28;20077;-72
2023/09/09 08:18:08;;;;;;;24.45;21.33;;;29.20;96.60;;;;;;4944792;28;199002;-73
2023/09/09 08:20:34;;;;;;;24.55;21.95;;;29.50;96.20;;;;;;4979943;28;20046;-72
2023/09/09 08:23:00;;;;;;;27.15;22.55;;;29.70;95.80;;;;;;4944518;28;136654;-73
2023/09/09 08:25:26;;;;;;;26.05;21.27;;;29.70;95.60;;;;;;4997069;28;20055;-73
2023/09/09 08:27:52;;;;;;;25.05;22.35;;;29.80;95.70;;;;;;4938837;28;221834;-76
2023/09/09 08:30:18;;;;;;;23.52;21.13;;;29.90;95.20;;;;;;4984990;28;20050;-73
2023/09/09 08:32:44;;;;;;;27.50;23.13;;;30.00;95.50;;;;;;4950334;28;20503;-74
2023/09/09 08:35:10;;;;;;;26.25;22.48;;;30.30;95.00;;;;;;5017051;28;20057;-74
2023/09/09 08:37:36;;;;;;;24.52;22.02;;;30.50;94.60;;;;;;4977701;28;20527;-74
2023/09/09 08:40:03;;;;;;;23.77;21.25;;;30.70;94.30;;;;;;4987517;28;63226;-75
2023/09/09 08:42:34;;;;;;;23.88;21.35;;;31.00;93.90;;;;;;4960138;28;20508;-72
2023/09/09 08:45:37;;;;;;;25.27;22.73;;;31.20;93.90;;;;;;4971984;28;74331;-71
2023/09/09 08:48:09;;;;;;;28.05;23.48;;;31.20;92.80;;;;;;4942866;28;206118;-75
2023/09/09 08:50:38;;;;;;;23.50;21.00;;;30.80;93.50;;;;;;4987851;28;20054;-72
2023/09/09 08:53:06;;;;;;;22.33;19.40;;;30.80;93.70;;;;;;4948749;28;134264;-73
2023/09/09 08:55:37;;;;;;;23.17;20.45;;;31.00;93.50;;;;;;5010478;28;20057;-74
2023/09/09 08:58:05;;;;;;;25.43;21.73;;;31.20;93.40;;;;;;4966068;28;147388;-77
2023/09/09 09:00:36;;;;;;;23.98;20.95;;;31.40;93.20;;;;;;5013107;28;20073;-72
2023/09/09 09:03:02;;;;;;;23.23;19.42;;;31.90;93.30;;;;;;4960908;28;156505;-72
2023/09/09 09:05:31;;;;;;;19.95;17.85;;;32.20;92.80;;;;;;4999046;28;20042;-72
2023/09/09 09:07:57;;;;;;;28.15;21.25;;;32.60;92.60;;;;;;4967340;28;227939;-73
2023/09/09 09:10:24;;;;;;;22.52;19.67;;;32.80;92.00;;;;;;4980434;28;20193;-72
2023/09/09 09:12:50;;;;;;;19.92;17.83;;;32.90;91.90;;;;;;4949894;28;58607;-73
2023/09/09 09:15:16;;;;;;;22.67;18.55;;;32.80;91.70;;;;;;4981159;28;20058;-72
2023/09/09 09:17:43;;;;;;;21.08;18.88;;;32.80;91.80;;;;;;4961971;28;20681;-71
2023/09/09 09:20:31;;;;;;;24.40;18.85;;;33.00;91.60;;;;;;4963810;28;219832;-71
2023/09/09 09:22:59;;;;;;;20.52;18.30;;;33.50;91.00;;;;;;4952747;28;33640;-73
2023/09/09 09:25:27;;;;;;;22.00;16.55;;;33.80;91.20;;;;;;4990421;28;20055;-72
2023/09/09 09:27:56;;;;;;;18.42;15.70;;;33.90;90.20;;;;;;4947750;28;110676;-71
2023/09/09 09:30:24;;;;;;;17.50;15.43;;;33.60;90.20;;;;;;5014919;28;20049;-71
2023/09/09 09:32:54;;;;;;;19.73;15.27;;;33.10;90.60;;;;;;4957509;28;143055;-72
2023/09/09 09:35:27;;;;;;;18.95;16.48;;;32.50;90.40;;;;;;4979269;28;20067;-73
2023/09/09 09:38:01;;;;;;;20.27;16.02;;;32.10;91.00;;;;;;4941106;28;209571;-72
2023/09/09 09:40:29;;;;;;;18.00;15.45;;;32.40;91.10;;;;;;5016218;28;20042;-70
2023/09/09 09:42:56;;;;;;;19.67;15.20;;;32.60;91.20;;;;;;4963892;28;72924;-71
2023/09/09 09:45:26;;;;;;;17.90;14.82;;;33.10;90.90;;;;;;4996974;28;20055;-70
2023/09/09 09:47:54;;;;;;;18.38;14.02;;;33.50;90.50;;;;;;4963196;28;25901;-71
2023/09/09 09:50:22;;;;;;;18.08;15.07;;;34.00;90.10;;;;;;5012975;28;20062;-72
2023/09/09 09:52:57;;;;;;;16.58;13.30;;;34.50;89.80;;;;;;4958866;28;253470;-71
2023/09/09 09:55:23;;;;;;;17.70;11.73;;;34.80;89.30;;;;;;4983283;28;76078;-72
2023/09/09 09:57:56;;;;;;;15.50;13.00;;;35.10;87.40;;;;;;4943736;28;49905;-71
2023/09/09 10:00:26;;;;;;;17.95;11.80;;;34.80;87.60;;;;;;4969164;28;20191;-73
2023/09/09 10:02:54;;;;;;;14.05;12.40;;;34.80;87.10;;;;;;4941651;28;122009;-73
2023/09/09 10:05:23;;;;;;;14.95;11.65;;;34.60;87.50;;;;;;4987788;28;20995;-74
2023/09/09 10:07:56;;;;;;;16.75;10.07;;;34.90;87.00;;;;;;4938853;28;20499;-71
2023/09/09 10:10:24;;;;;;;15.52;10.93;;;35.20;86.40;;;;;;4971321;28;20061;-72
2023/09/09 10:13:01;;;;;;;14.43;10.63;;;35.20;85.80;;;;;;4935096;28;229878;-72
2023/09/09 10:15:30;;;;;;;16.35;11.13;;;34.90;85.80;;;;;;4968578;28;20053;-72
2023/09/09 10:17:59;;;;;;;17.63;12.10;;;34.30;86.90;;;;;;4939937;28;124809;-72
2023/09/09 10:20:26;;;;;;;17.05;11.60;;;34.30;86.40;;;;;;4979692;28;20046;-73
2023/09/09 10:22:59;;;;;;;15.63;11.20;;;34.30;86.60;;;;;;4944168;28;91872;-72
2023/09/09 10:25:35;;;;;;;16.40;11.73;;;34.60;86.50;;;;;;4982122;28;20533;-71
2023/09/09 10:28:02;;;;;;;16.17;12.38;;;35.00;85.80;;;;;;4940657;28;232198;-72
2023/09/09 10:30:31;;;;;;;16.60;12.90;;;34.80;85.80;;;;;;4992027;28;20054;-72
2023/09/09 10:33:00;;;;;;;16.65;12.52;;;34.70;86.00;;;;;;4940666;28;104105;-73
2023/09/09 10:35:27;;;;;;;17.97;14.17;;;34.60;85.20;;;;;;4980404;28;20050;-72
2023/09/09 10:37:55;;;;;;;18.10;14.02;;;34.10;86.10;;;;;;4951045;28;77588;-71
2023/09/09 10:40:25;;;;;;;19.25;14.38;;;33.70;86.70;;;;;;5009014;28;20458;-69
2023/09/09 10:42:51;;;;;;;18.23;14.55;;;33.30;87.10;;;;;;4958850;28;194629;-73
2023/09/09 10:45:32;;;;;;;18.40;14.35;;;32.60;88.40;;;;;;5010070;28;20061;-70
2023/09/09 10:48:07;;;;;;;16.60;14.35;;;32.60;89.20;;;;;;4958445;28;166585;-71
2023/09/09 10:50:51;;;;;;;19.20;14.82;;;32.90;89.00;;;;;;4990554;28;20069;-72
2023/09/09 10:53:22;;;;;;;19.95;14.95;;;33.00;88.80;;;;;;4926867;28;268979;-72
2023/09/09 10:55:51;;;;;;;20.02;14.50;;;33.40;88.00;;;;;;4993165;28;20130;-71
2023/09/09 10:58:18;;;;;;;16.03;12.90;;;34.10;87.80;;;;;;4943661;28;36216;-73
2023/09/09 11:00:49;;;;;;;18.83;13.10;;;34.50;86.90;;;;;;4986663;28;20309;-73
2023/09/09 11:03:20;;;;;;;17.10;12.27;;;34.60;86.20;;;;;;4955089;28;20065;-74
2023/09/09 11:05:59;;;;;;;18.75;12.90;;;34.50;86.50;;;;;;4995303;28;20077;-76
2023/09/09 11:08:55;;;;;;;17.75;14.10;;;34.50;85.70;;;;;;4935837;28;250630;-72
2023/09/09 11:11:25;;;;;;;17.67;12.18;;;34.20;85.50;;;;;;4978885;28;20065;-73
2023/09/09 11:14:04;;;;;;;16.40;13.23;;;34.40;86.00;;;;;;4930608;28;158250;-72
2023/09/09 11:16:38;;;;;;;18.60;13.93;;;34.50;85.70;;;;;;4983555;28;20516;-71
2023/09/09 11:19:11;;;;;;;17.08;12.75;;;34.50;85.10;;;;;;4928324;28;210105;-72
2023/09/09 11:21:40;;;;;;;19.90;11.13;;;34.30;85.20;;;;;;4982937;28;20070;-71
2023/09/09 11:24:08;;;;;;;15.80;13.10;;;34.40;86.40;;;;;;4956280;28;20060;-72
2023/09/09 11:26:51;;;;;;;19.17;12.80;;;35.00;85.20;;;;;;4987334;28;20058;-73
2023/09/09 11:29:18;;;;;;;15.93;11.38;;;35.00;84.10;;;;;;4959904;28;192001;-74
2023/09/09 11:31:45;;;;;;;16.65;11.93;;;34.90;84.60;;;;;;5011988;28;20494;-73
2023/09/09 11:34:11;;;;;;;15.25;10.50;;;34.70;83.40;;;;;;4955273;28;240253;-75
2023/09/09 11:36:37;;;;;;;17.05;10.93;;;33.70;84.60;;;;;;5005145;28;20061;-74
2023/09/09 11:39:06;;;;;;;15.25;9.30;;;32.90;85.80;;;;;;4969730;28;147153;-71
2023/09/09 11:41:34;;;;;;;13.27;9.38;;;33.30;87.30;;;;;;5003470;28;20694;-69
2023/09/09 11:44:05;;;;;;;16.20;9.27;;;34.10;86.00;;;;;;4955862;28;20057;-72
2023/09/09 11:46:42;;;;;;;12.57;8.80;;;34.80;84.70;;;;;;4979609;28;20061;-72
2023/09/09 11:49:10;;;;;;;13.90;8.50;;;35.40;84.10;;;;;;4918311;28;20074;-71
2023/09/09 11:51:36;;;;;;;14.18;10.02;;;35.90;83.50;;;;;;4979746;28;20463;-70
2023/09/09 11:54:04;;;;;;;14.10;8.60;;;36.30;82.40;;;;;;4955135;28;20104;-70
2023/09/09 11:56:33;;;;;;;13.00;8.70;;;36.30;81.40;;;;;;5007927;28;20058;-71
2023/09/09 11:59:05;;;;;;;14.40;8.53;;;36.00;82.80;;;;;;4942373;28;174913;-71
2023/09/09 12:01:43;;;;;;;12.77;8.50;;;35.20;82.60;;;;;;5006543;28;20746;-72
2023/09/09 12:04:10;;;;;;;13.30;8.18;;;35.00;82.60;;;;;;4962573;28;123931;-72
2023/09/09 12:06:39;;;;;;;15.82;7.80;;;34.60;83.50;;;;;;4992820;28;20050;-71
2023/09/09 12:09:06;;;;;;;11.77;7.55;;;35.00;83.20;;;;;;4949561;28;205091;-70
2023/09/09 12:11:33;;;;;;;12.05;8.50;;;35.00;81.30;;;;;;4982755;28;20676;-71
2023/09/09 12:14:00;;;;;;;12.32;7.50;;;34.60;82.40;;;;;;4922875;28;153198;-71
2023/09/09 12:16:30;;;;;;;13.35;8.77;;;34.40;80.70;;;;;;4975063;28;20049;-72
2023/09/09 12:18:56;;;;;;;;;;;33.90;82.30;;;;;;4959589;28;20057;-72
2023/09/09 12:21:23;;;;;;;10.15;6.20;;;34.20;83.60;;;;;;4977605;28;19928;-71
2023/09/09 12:23:59;;;;;;;12.98;6.13;;;34.50;80.80;;;;;;4958955;28;20068;-72
2023/09/09 12:26:26;;;;;;;13.38;6.30;;;34.10;81.10;;;;;;4978441;28;20065;-71
2023/09/09 12:29:07;;;;;;;14.15;5.55;;;34.20;81.30;;;;;;4934801;28;20064;-70